Time;durP1;ratioP1;P1;durP2;ratioP2;P2;SDS_P1;SDS_P2;PMS_P1;PMS_P2;Temp;Humidity;BMP_temperature;BMP_pressure;BME280_temperature;BME280_humidity;BME280_pressure;Samples;Min_cycle;Max_cycle;Signal;HPM_P1;HPM_P2
2023/04/23 00:00:26;;;;;;;0.70;0.45;;;9.20;99.90;;;;;;4906943;29;20440;-88
2023/04/23 00:02:53;;;;;;;0.35;0.35;;;9.20;99.90;;;;;;4906494;29;20047;-87
2023/04/23 00:05:23;;;;;;;0.20;0.20;;;9.20;99.90;;;;;;4937932;29;20048;-88
2023/04/23 00:07:55;;;;;;;1.65;0.30;;;9.20;99.90;;;;;;4922469;29;20044;-88
2023/04/23 00:10:22;;;;;;;0.00;0.00;;;9.20;99.90;;;;;;4921892;29;20411;-88
2023/04/23 00:13:04;;;;;;;4.20;0.47;;;9.20;99.90;;;;;;4921690;29;20079;-88
2023/04/23 00:15:32;;;;;;;0.03;0.00;;;9.20;99.90;;;;;;4923178;29;20059;-89
2023/04/23 00:18:03;;;;;;;0.00;0.00;;;9.20;99.90;;;;;;4921951;29;20048;-89
2023/04/23 00:20:34;;;;;;;0.47;0.20;;;9.10;99.90;;;;;;4907199;29;20047;-87
2023/04/23 00:23:05;;;;;;;0.10;0.08;;;9.00;99.90;;;;;;4938283;29;20039;-88
2023/04/23 00:25:31;;;;;;;0.40;0.40;;;9.10;99.90;;;;;;4922136;29;20059;-88
2023/04/23 00:28:00;;;;;;;0.08;0.08;;;9.10;99.90;;;;;;4921538;29;20047;-89
2023/04/23 00:30:31;;;;;;;2.70;0.60;;;9.10;99.90;;;;;;4921648;29;20039;-88
2023/04/23 00:32:59;;;;;;;0.75;0.10;;;9.00;99.90;;;;;;4921695;29;20119;-88
2023/04/23 00:35:25;;;;;;;0.30;0.30;;;9.10;99.90;;;;;;4937649;29;20048;-88
2023/04/23 00:38:01;;;;;;;0.20;0.20;;;9.10;99.90;;;;;;4921537;29;20385;-87
2023/04/23 00:40:27;;;;;;;0.00;0.00;;;9.00;99.90;;;;;;4921084;29;20047;-87
2023/04/23 00:43:03;;;;;;;0.57;0.20;;;9.00;99.90;;;;;;4921568;29;20048;-88
2023/04/23 00:45:32;;;;;;;0.80;0.77;;;9.00;99.90;;;;;;4921688;29;20211;-87
2023/04/23 00:48:04;;;;;;;0.03;0.03;;;9.00;99.90;;;;;;4937149;29;20103;-87
2023/04/23 00:50:36;;;;;;;0.70;0.70;;;9.00;99.90;;;;;;4921570;29;20058;-88
2023/04/23 00:53:03;;;;;;;0.08;0.08;;;9.00;99.90;;;;;;4921287;29;20135;-88
2023/04/23 00:55:31;;;;;;;0.03;0.00;;;9.00;99.90;;;;;;4936780;29;20461;-87
2023/04/23 00:58:09;;;;;;;0.47;0.47;;;9.00;99.90;;;;;;4910003;29;20135;-88
2023/04/23 01:00:51;;;;;;;;;;;;;;;;;;;;;
2023/04/23 01:03:20;;;;;;;0.25;0.22;;;9.00;99.90;;;;;;4920658;29;20135;-88
2023/04/23 01:05:51;;;;;;;0.77;0.52;;;9.00;99.90;;;;;;4921062;29;20134;-88
2023/04/23 01:08:18;;;;;;;0.22;0.22;;;9.00;99.90;;;;;;4905036;29;20040;-87
2023/04/23 01:10:44;;;;;;;0.05;0.05;;;9.00;99.90;;;;;;4904655;29;20468;-87
2023/04/23 01:13:16;;;;;;;0.20;0.20;;;9.00;99.90;;;;;;4921011;29;20083;-87
2023/04/23 01:15:46;;;;;;;1.25;0.50;;;9.00;99.90;;;;;;4905493;29;20048;-87
2023/04/23 01:18:12;;;;;;;0.52;0.20;;;8.90;99.90;;;;;;4905227;29;20051;-87
2023/04/23 01:20:38;;;;;;;2.95;0.65;;;8.90;99.90;;;;;;4905329;29;20058;-88
2023/04/23 01:23:05;;;;;;;0.10;0.10;;;8.90;99.90;;;;;;4904967;29;20512;-87
2023/04/23 01:25:34;;;;;;;1.65;0.30;;;8.90;99.90;;;;;;4920750;29;20058;-88
2023/04/23 01:28:03;;;;;;;0.75;0.75;;;8.90;99.90;;;;;;4904885;29;20048;-88
2023/04/23 01:30:31;;;;;;;0.08;0.08;;;8.90;99.90;;;;;;4904900;29;20126;-87
2023/04/23 01:33:06;;;;;;;2.53;0.50;;;8.90;99.90;;;;;;4904841;29;20098;-87
2023/04/23 01:35:32;;;;;;;0.45;0.45;;;8.90;99.90;;;;;;4920749;29;20495;-87
2023/04/23 01:38:03;;;;;;;0.30;0.30;;;8.90;99.90;;;;;;4920583;29;20048;-88
2023/04/23 01:40:29;;;;;;;2.50;0.98;;;8.90;99.90;;;;;;4904450;29;20055;-88
2023/04/23 01:42:59;;;;;;;4.28;0.38;;;8.90;99.90;;;;;;4904946;29;20043;-88
2023/04/23 01:45:29;;;;;;;2.05;1.00;;;9.00;99.90;;;;;;4904658;29;20055;-88
2023/04/23 01:47:55;;;;;;;0.20;0.20;;;9.00;99.90;;;;;;4904694;29;20055;-88
2023/04/23 01:50:23;;;;;;;0.20;0.20;;;8.90;99.90;;;;;;4904526;29;20187;-88
2023/04/23 01:52:52;;;;;;;1.33;1.08;;;8.80;99.90;;;;;;4904546;29;20040;-87
2023/04/23 01:55:22;;;;;;;1.55;0.80;;;8.80;99.90;;;;;;4904474;29;20053;-87
2023/04/23 01:57:50;;;;;;;0.38;0.38;;;8.80;99.90;;;;;;4913956;29;20052;-88
2023/04/23 02:00:19;;;;;;;0.22;0.10;;;8.80;99.90;;;;;;4920298;29;20056;-87
2023/04/23 02:02:47;;;;;;;1.92;0.50;;;8.80;99.90;;;;;;4919991;29;20083;-88
2023/04/23 02:05:17;;;;;;;0.00;0.00;;;8.80;99.90;;;;;;4920458;29;20054;-88
2023/04/23 02:07:48;;;;;;;1.27;0.50;;;8.80;99.90;;;;;;4919918;29;20130;-87
2023/04/23 02:10:15;;;;;;;4.43;1.02;;;8.70;99.90;;;;;;4935025;29;20500;-88
2023/04/23 02:12:46;;;;;;;0.50;0.50;;;8.70;99.90;;;;;;4920447;29;20423;-87
2023/04/23 02:15:15;;;;;;;1.45;0.40;;;8.60;99.90;;;;;;4919349;29;20111;-87
2023/04/23 02:17:41;;;;;;;2.70;0.38;;;8.60;99.90;;;;;;4920203;29;20098;-88
2023/04/23 02:20:13;;;;;;;0.40;0.20;;;8.60;99.90;;;;;;4904201;29;20083;-87
2023/04/23 02:22:42;;;;;;;0.35;0.32;;;8.60;99.90;;;;;;4920110;29;20488;-87
2023/04/23 02:25:09;;;;;;;0.47;0.47;;;8.50;99.90;;;;;;4919627;29;20059;-87
2023/04/23 02:27:35;;;;;;;0.55;0.55;;;8.50;99.90;;;;;;4903988;29;20051;-87
2023/04/23 02:30:09;;;;;;;0.10;0.10;;;8.50;99.90;;;;;;4919228;29;20472;-88
2023/04/23 02:32:36;;;;;;;0.77;0.43;;;8.50;99.90;;;;;;4919745;29;20138;-88
2023/04/23 02:35:08;;;;;;;0.52;0.30;;;8.50;99.90;;;;;;4935780;29;20488;-87
2023/04/23 02:37:34;;;;;;;0.68;0.63;;;8.50;99.90;;;;;;4919747;29;20465;-87
2023/04/23 02:40:08;;;;;;;0.70;0.63;;;8.50;99.90;;;;;;4919395;29;20051;-88
2023/04/23 02:42:44;;;;;;;1.08;0.52;;;8.40;99.90;;;;;;4919858;29;20118;-88
2023/04/23 02:45:10;;;;;;;0.73;0.73;;;8.40;99.90;;;;;;4905319;29;20044;-88
2023/04/23 02:47:40;;;;;;;2.65;0.95;;;8.40;99.90;;;;;;4919560;29;20066;-87
2023/04/23 02:50:06;;;;;;;0.73;0.73;;;8.40;99.90;;;;;;4919212;29;20531;-87
2023/04/23 02:52:40;;;;;;;1.45;0.57;;;8.30;99.90;;;;;;4919802;29;20063;-88
2023/04/23 02:55:19;;;;;;;2.83;0.85;;;8.20;99.90;;;;;;4919723;29;20086;-88
2023/04/23 02:57:45;;;;;;;3.33;0.43;;;8.20;99.90;;;;;;4935838;29;20086;-88
2023/04/23 03:00:16;;;;;;;2.33;0.73;;;8.20;99.90;;;;;;4922978;29;20047;-87
2023/04/23 03:02:45;;;;;;;1.60;1.17;;;8.20;99.90;;;;;;4922748;29;20087;-88
2023/04/23 03:05:11;;;;;;;0.70;0.70;;;8.10;99.90;;;;;;4937549;29;20114;-88
2023/04/23 03:07:40;;;;;;;1.05;0.82;;;8.20;99.90;;;;;;4922526;29;20138;-87
2023/04/23 03:10:07;;;;;;;2.28;1.00;;;8.10;99.90;;;;;;4938297;29;20110;-87
2023/04/23 03:12:33;;;;;;;0.77;0.77;;;8.10;99.90;;;;;;4922467;29;20115;-87
2023/04/23 03:15:03;;;;;;;2.38;1.33;;;8.00;99.90;;;;;;4922287;29;20089;-88
2023/04/23 03:17:31;;;;;;;2.30;0.73;;;7.90;99.90;;;;;;4907106;29;20498;-88
2023/04/23 03:19:57;;;;;;;0.40;0.40;;;7.90;99.90;;;;;;4937880;29;20043;-87
2023/04/23 03:22:25;;;;;;;0.60;0.45;;;7.90;99.90;;;;;;4922382;29;20065;-88
2023/04/23 03:25:00;;;;;;;2.40;0.30;;;7.90;99.90;;;;;;4907238;29;20090;-88
2023/04/23 03:27:31;;;;;;;0.50;0.50;;;7.90;99.90;;;;;;4924225;29;20065;-88
2023/04/23 03:29:57;;;;;;;3.60;0.88;;;7.90;99.90;;;;;;4910453;29;20055;-88
2023/04/23 03:32:23;;;;;;;0.30;0.30;;;7.90;99.90;;;;;;4925805;29;20043;-88
2023/04/23 03:34:49;;;;;;;8.02;1.27;;;7.90;99.90;;;;;;4926072;29;20047;-87
2023/04/23 03:37:17;;;;;;;2.05;0.82;;;7.80;99.90;;;;;;4941643;29;20461;-87
2023/04/23 03:39:43;;;;;;;0.75;0.75;;;7.90;99.90;;;;;;4925794;29;20055;-88
2023/04/23 03:42:11;;;;;;;4.47;1.10;;;7.90;99.90;;;;;;4925499;29;20059;-87
2023/04/23 03:44:37;;;;;;;2.42;1.05;;;8.00;99.90;;;;;;4941374;29;20399;-88
2023/04/23 03:47:03;;;;;;;1.40;1.13;;;8.00;99.90;;;;;;4925590;29;20130;-87
2023/04/23 03:49:31;;;;;;;18.45;1.90;;;7.90;99.90;;;;;;4926111;29;20047;-87
2023/04/23 03:51:57;;;;;;;8.68;1.92;;;7.90;99.90;;;;;;4941905;29;20047;-87
2023/04/23 03:54:27;;;;;;;1.30;1.20;;;7.90;99.90;;;;;;4941569;29;20047;-87
2023/04/23 03:56:53;;;;;;;7.88;0.80;;;7.70;99.90;;;;;;4924993;29;20059;-87
2023/04/23 03:59:24;;;;;;;1.88;1.48;;;7.80;99.90;;;;;;4925079;29;20073;-87
2023/04/23 04:01:50;;;;;;;5.53;1.27;;;7.80;99.90;;;;;;4941749;29;20043;-87
2023/04/23 04:04:24;;;;;;;0.35;0.35;;;7.80;99.90;;;;;;4925548;29;20083;-87
2023/04/23 04:06:50;;;;;;;2.10;0.85;;;7.80;99.90;;;;;;4925719;29;20051;-87
2023/04/23 04:09:18;;;;;;;2.17;0.40;;;7.80;99.90;;;;;;4941506;29;20087;-87
2023/04/23 04:11:43;;;;;;;0.95;0.43;;;7.80;99.90;;;;;;4924669;29;20081;-88
2023/04/23 04:14:14;;;;;;;1.10;1.00;;;7.90;99.90;;;;;;4925780;29;20492;-87
2023/04/23 04:16:40;;;;;;;1.50;0.68;;;7.80;99.90;;;;;;4909629;29;20407;-87
2023/04/23 04:19:06;;;;;;;0.55;0.55;;;7.80;99.90;;;;;;4925226;29;20054;-87
2023/04/23 04:21:32;;;;;;;0.95;0.25;;;7.80;99.90;;;;;;4924913;29;20089;-88
2023/04/23 04:24:03;;;;;;;0.98;0.98;;;7.80;99.90;;;;;;4925059;29;20190;-88
2023/04/23 04:26:33;;;;;;;2.75;1.00;;;7.80;99.90;;;;;;4910011;29;20099;-87
2023/04/23 04:29:00;;;;;;;2.97;0.50;;;7.80;99.90;;;;;;4924814;29;20048;-87
2023/04/23 04:31:27;;;;;;;1.63;1.02;;;7.80;99.90;;;;;;4909458;29;20051;-87
2023/04/23 04:33:57;;;;;;;1.02;0.32;;;7.80;99.90;;;;;;4925472;29;20391;-87
2023/04/23 04:36:24;;;;;;;0.15;0.10;;;7.80;99.90;;;;;;4925179;29;20110;-87
2023/04/23 04:39:02;;;;;;;0.98;0.28;;;7.80;99.90;;;;;;4924372;29;20051;-88
2023/04/23 04:41:31;;;;;;;3.20;0.75;;;7.80;99.90;;;;;;4924141;29;20047;-87
2023/04/23 04:43:57;;;;;;;3.20;0.60;;;7.80;99.90;;;;;;4924515;29;20110;-87
2023/04/23 04:46:27;;;;;;;0.55;0.55;;;7.80;99.90;;;;;;4924828;29;20513;-87
2023/04/23 04:48:53;;;;;;;5.03;0.80;;;7.80;99.90;;;;;;4940654;29;20065;-87
2023/04/23 04:51:20;;;;;;;4.68;1.10;;;7.80;99.90;;;;;;4924639;29;20542;-87
2023/04/23 04:53:48;;;;;;;2.67;0.60;;;7.90;99.90;;;;;;4924701;29;20479;-87
2023/04/23 04:56:21;;;;;;;1.75;1.48;;;8.00;99.90;;;;;;4925053;29;20090;-87
2023/04/23 04:58:46;;;;;;;0.63;0.63;;;8.00;99.90;;;;;;4920737;29;20074;-87
2023/04/23 05:01:14;;;;;;;0.52;0.52;;;8.10;99.90;;;;;;4904314;29;20134;-88
2023/04/23 05:03:46;;;;;;;0.75;0.73;;;8.10;99.90;;;;;;4905535;29;20044;-87
2023/04/23 05:06:12;;;;;;;0.82;0.80;;;8.10;99.90;;;;;;4921184;29;20047;-87
2023/04/23 05:08:40;;;;;;;2.13;1.10;;;8.20;99.90;;;;;;4905364;29;20043;-87
2023/04/23 05:11:06;;;;;;;0.63;0.63;;;8.20;99.90;;;;;;4920614;29;20052;-87
2023/04/23 05:13:31;;;;;;;5.38;1.25;;;8.20;99.90;;;;;;4905378;29;20047;-87
2023/04/23 05:16:00;;;;;;;1.90;0.98;;;8.30;99.90;;;;;;4904745;29;20412;-87
2023/04/23 05:18:26;;;;;;;0.43;0.43;;;8.30;99.90;;;;;;4920881;29;20097;-87
2023/04/23 05:20:54;;;;;;;0.57;0.30;;;8.40;99.90;;;;;;4889094;29;20096;-87
2023/04/23 05:23:20;;;;;;;2.35;1.10;;;8.40;99.90;;;;;;4905053;29;20051;-87
2023/04/23 05:25:50;;;;;;;1.05;0.77;;;8.50;99.90;;;;;;4920774;29;20134;-86
2023/04/23 05:28:16;;;;;;;1.58;1.33;;;8.50;99.90;;;;;;4905682;29;20058;-87
2023/04/23 05:30:42;;;;;;;0.73;0.73;;;8.50;99.90;;;;;;4889270;29;20040;-87
2023/04/23 05:33:08;;;;;;;1.30;0.40;;;8.50;99.90;;;;;;4920276;29;20058;-87
2023/04/23 05:35:34;;;;;;;2.30;0.40;;;8.60;99.90;;;;;;4920500;29;20099;-87
2023/04/23 05:38:01;;;;;;;2.08;1.23;;;8.60;99.90;;;;;;4936655;29;20051;-86
2023/04/23 05:40:27;;;;;;;1.75;0.88;;;8.60;99.90;;;;;;4935323;29;20055;-87
2023/04/23 05:42:55;;;;;;;1.75;1.45;;;8.70;99.90;;;;;;4913364;29;20040;-86
2023/04/23 05:45:25;;;;;;;2.92;1.70;;;8.60;99.90;;;;;;4904664;29;20055;-86
2023/04/23 05:47:51;;;;;;;1.75;1.65;;;8.70;99.90;;;;;;4888844;29;20514;-87
2023/04/23 05:50:17;;;;;;;2.00;0.50;;;8.70;99.90;;;;;;4903897;29;20134;-87
2023/04/23 05:52:43;;;;;;;1.48;1.33;;;8.70;99.90;;;;;;4904707;29;20403;-86
2023/04/23 05:55:09;;;;;;;0.55;0.55;;;8.80;99.90;;;;;;4904548;29;20047;-87
2023/04/23 05:57:36;;;;;;;1.73;1.63;;;9.10;99.90;;;;;;4892909;29;20087;-87
2023/04/23 06:00:04;;;;;;;2.15;1.58;;;9.00;99.90;;;;;;4904512;29;20373;-87
2023/04/23 06:02:32;;;;;;;3.03;1.10;;;9.10;99.90;;;;;;4920046;29;20047;-86
2023/04/23 06:04:58;;;;;;;1.45;1.13;;;9.20;99.90;;;;;;4920113;29;20146;-86
2023/04/23 06:07:24;;;;;;;4.07;0.77;;;9.30;99.90;;;;;;4920215;29;20439;-86
2023/04/23 06:09:50;;;;;;;3.72;1.92;;;9.40;99.90;;;;;;4920015;29;20091;-86
2023/04/23 06:12:16;;;;;;;1.95;1.42;;;9.60;99.90;;;;;;4888215;29;20551;-87
2023/04/23 06:14:42;;;;;;;1.42;1.33;;;9.80;99.90;;;;;;4919860;29;20134;-86
2023/04/23 06:17:08;;;;;;;0.90;0.90;;;9.90;99.90;;;;;;4935663;29;20192;-86
2023/04/23 06:19:34;;;;;;;3.35;1.08;;;10.00;99.90;;;;;;4935787;29;20058;-86
2023/04/23 06:22:00;;;;;;;2.30;2.20;;;10.10;99.90;;;;;;4919795;29;20051;-85
2023/04/23 06:24:26;;;;;;;2.13;1.30;;;10.20;99.90;;;;;;4919346;29;20134;-86
2023/04/23 06:26:51;;;;;;;0.75;0.43;;;10.20;99.90;;;;;;4888172;29;20142;-86
2023/04/23 06:29:17;;;;;;;0.63;0.63;;;10.30;99.90;;;;;;4904131;29;20123;-84
2023/04/23 06:31:43;;;;;;;1.13;1.08;;;10.30;99.90;;;;;;4919811;29;20048;-85
2023/04/23 06:34:11;;;;;;;1.10;0.55;;;10.40;99.90;;;;;;4919508;29;20056;-85
2023/04/23 06:36:37;;;;;;;1.63;1.08;;;10.60;99.90;;;;;;4935385;29;20043;-87
2023/04/23 06:39:03;;;;;;;1.08;1.08;;;10.70;99.90;;;;;;4916620;29;20084;-88
2023/04/23 06:41:31;;;;;;;1.40;1.30;;;10.80;99.90;;;;;;4910857;29;20040;-89
2023/04/23 06:43:57;;;;;;;1.98;1.73;;;10.90;99.90;;;;;;4892998;29;20044;-88
2023/04/23 06:46:23;;;;;;;2.60;2.22;;;11.10;99.90;;;;;;4901005;29;20534;-86
2023/04/23 06:48:49;;;;;;;0.88;0.88;;;11.40;99.90;;;;;;4935520;29;20474;-86
2023/04/23 06:51:16;;;;;;;1.00;0.75;;;11.90;99.90;;;;;;4935791;29;20048;-86
2023/04/23 06:53:42;;;;;;;2.20;1.20;;;12.70;98.20;;;;;;4904297;29;20048;-86
2023/04/23 06:56:08;;;;;;;2.45;1.75;;;13.20;93.80;;;;;;4919596;29;20059;-87
2023/04/23 06:58:34;;;;;;;2.97;1.98;;;13.30;90.80;;;;;;4922424;29;20146;-86
2023/04/23 07:01:03;;;;;;;1.05;0.98;;;13.60;89.90;;;;;;4923383;29;20044;-86
2023/04/23 07:03:30;;;;;;;1.27;1.00;;;14.10;90.10;;;;;;4926544;29;20113;-86
2023/04/23 07:05:56;;;;;;;4.55;1.40;;;14.60;86.70;;;;;;4941858;29;20047;-86
2023/04/23 07:08:24;;;;;;;1.20;0.45;;;14.60;76.50;;;;;;4926013;29;20195;-89
2023/04/23 07:10:53;;;;;;;0.73;0.73;;;14.50;78.50;;;;;;4925774;29;20380;-88
2023/04/23 07:13:21;;;;;;;1.63;1.23;;;14.10;76.50;;;;;;4910576;29;20047;-88
2023/04/23 07:15:47;;;;;;;1.00;0.85;;;13.60;68.70;;;;;;4926303;29;20709;-84
2023/04/23 07:18:13;;;;;;;3.35;1.67;;;13.30;76.80;;;;;;4910788;29;20592;-86
2023/04/23 07:20:39;;;;;;;1.65;1.20;;;13.20;81.50;;;;;;4926434;29;20059;-86
2023/04/23 07:23:05;;;;;;;3.13;1.92;;;12.90;81.70;;;;;;4926004;29;20075;-86
2023/04/23 07:25:31;;;;;;;1.17;1.10;;;12.80;87.50;;;;;;4941993;29;20053;-86
2023/04/23 07:27:57;;;;;;;5.97;1.63;;;12.60;87.00;;;;;;4925940;29;20102;-86
2023/04/23 07:30:26;;;;;;;1.25;0.82;;;12.40;90.80;;;;;;4941638;29;20483;-85
2023/04/23 07:32:54;;;;;;;0.85;0.85;;;12.30;91.10;;;;;;4942169;29;20523;-86
2023/04/23 07:35:20;;;;;;;0.28;0.25;;;12.20;93.00;;;;;;4941869;29;20055;-85
2023/04/23 07:37:46;;;;;;;1.33;0.73;;;12.10;94.30;;;;;;4941613;29;20039;-86
2023/04/23 07:40:12;;;;;;;0.45;0.45;;;12.10;94.10;;;;;;4941661;29;20039;-86
2023/04/23 07:42:38;;;;;;;0.43;0.43;;;12.00;95.10;;;;;;4940903;29;20044;-86
2023/04/23 07:45:10;;;;;;;6.90;0.73;;;12.00;95.70;;;;;;4925851;29;20043;-85
2023/04/23 07:47:36;;;;;;;0.68;0.68;;;12.00;95.10;;;;;;4941664;29;20043;-86
2023/04/23 07:50:01;;;;;;;0.10;0.10;;;12.00;95.20;;;;;;4941562;29;20054;-86
2023/04/23 07:52:27;;;;;;;2.50;0.98;;;12.20;97.30;;;;;;4925476;29;20047;-86
2023/04/23 07:54:53;;;;;;;1.08;0.30;;;12.70;96.60;;;;;;4909844;29;20047;-86
2023/04/23 07:57:19;;;;;;;0.60;0.60;;;13.20;95.50;;;;;;4941001;29;20055;-86
2023/04/23 07:59:44;;;;;;;2.65;0.93;;;13.60;93.30;;;;;;4925937;29;20059;-86
2023/04/23 08:02:13;;;;;;;0.52;0.52;;;13.70;85.80;;;;;;4925624;29;20049;-85
2023/04/23 08:04:38;;;;;;;5.07;1.45;;;14.20;87.90;;;;;;4940478;29;20047;-86
2023/04/23 08:07:06;;;;;;;2.30;0.90;;;14.40;85.20;;;;;;4909495;29;20114;-86
2023/04/23 08:09:32;;;;;;;1.30;0.90;;;14.70;83.40;;;;;;4909581;29;20412;-86
2023/04/23 08:11:58;;;;;;;0.60;0.60;;;14.90;74.00;;;;;;4908582;28;20049;-87
2023/04/23 08:14:24;;;;;;;0.70;0.70;;;15.10;72.30;;;;;;4940572;29;20381;-85
2023/04/23 08:16:49;;;;;;;1.10;1.10;;;15.20;74.80;;;;;;4941139;29;20051;-86
2023/04/23 08:19:18;;;;;;;0.57;0.50;;;15.10;72.20;;;;;;4925031;29;20048;-86
2023/04/23 08:21:53;;;;;;;0.50;0.50;;;15.10;80.60;;;;;;4925178;29;20084;-86
2023/04/23 08:24:19;;;;;;;0.50;0.50;;;15.40;81.50;;;;;;4940413;29;20043;-86
2023/04/23 08:26:45;;;;;;;0.60;0.40;;;15.30;71.60;;;;;;4925065;29;20051;-86
2023/04/23 08:29:11;;;;;;;0.52;0.40;;;15.40;68.20;;;;;;4894078;29;20415;-86
2023/04/23 08:31:37;;;;;;;5.30;0.73;;;15.50;70.10;;;;;;4924559;29;20043;-86
2023/04/23 08:34:02;;;;;;;1.02;0.90;;;15.50;63.40;;;;;;4924863;29;20043;-85
2023/04/23 08:36:31;;;;;;;6.45;1.27;;;15.40;99.90;;;;;;4893727;29;20475;-85
2023/04/23 08:38:57;;;;;;;0.47;0.47;;;15.30;60.70;;;;;;4909009;29;20043;-86
2023/04/23 08:41:26;;;;;;;0.98;0.52;;;15.60;70.40;;;;;;4893210;29;20055;-86
2023/04/23 08:44:27;;;;;;;1.27;0.85;;;15.50;99.90;;;;;;4909419;29;20452;-86
2023/04/23 08:46:54;;;;;;;0.63;0.45;;;15.50;64.40;;;;;;4904846;29;20047;-86
2023/04/23 08:49:19;;;;;;;3.05;1.35;;;15.70;60.30;;;;;;4924624;29;20047;-85
2023/04/23 08:51:53;;;;;;;2.35;1.27;;;15.70;57.30;;;;;;4941161;29;20098;-86
2023/04/23 08:54:25;;;;;;;0.95;0.95;;;15.70;53.90;;;;;;4895224;29;20130;-86
2023/04/23 08:56:57;;;;;;;1.48;0.85;;;15.90;58.30;;;;;;4922605;29;20133;-86
2023/04/23 08:59:29;;;;;;;0.10;0.10;;;16.10;58.40;;;;;;4905624;29;20047;-85
2023/04/23 09:01:56;;;;;;;0.60;0.60;;;16.40;59.10;;;;;;4905276;29;20590;-86
2023/04/23 09:04:23;;;;;;;0.30;0.20;;;16.40;60.00;;;;;;4905519;29;20130;-86
2023/04/23 09:06:49;;;;;;;1.38;0.40;;;16.40;49.80;;;;;;4905570;29;20051;-86
2023/04/23 09:09:22;;;;;;;0.00;0.00;;;16.60;53.50;;;;;;4905522;29;20086;-86
2023/04/23 09:11:48;;;;;;;0.95;0.10;;;16.80;99.00;;;;;;4905029;29;20052;-85
2023/04/23 09:14:17;;;;;;;0.38;0.38;;;17.20;60.00;;;;;;4905067;29;20054;-85
2023/04/23 09:16:43;;;;;;;0.20;0.15;;;17.30;77.30;;;;;;4905502;29;20079;-86
2023/04/23 09:19:10;;;;;;;0.65;0.17;;;17.30;65.80;;;;;;4889627;29;20091;-86
2023/04/23 09:21:39;;;;;;;0.10;0.10;;;17.40;55.20;;;;;;4905118;29;20047;-86
2023/04/23 09:24:10;;;;;;;0.00;0.00;;;17.50;50.70;;;;;;4904946;29;20148;-86
2023/04/23 09:26:42;;;;;;;0.15;0.15;;;17.50;45.50;;;;;;4905149;29;20083;-86
2023/04/23 09:29:27;;;;;;;0.63;0.63;;;17.70;54.00;;;;;;4890136;29;20527;-86
2023/04/23 09:32:07;;;;;;;0.10;0.10;;;18.00;63.70;;;;;;4905423;29;20048;-86
2023/04/23 09:34:39;;;;;;;0.10;0.10;;;18.00;54.70;;;;;;4905123;29;20048;-86
2023/04/23 09:37:09;;;;;;;0.85;0.38;;;18.30;57.30;;;;;;4920636;29;20047;-86
2023/04/23 09:39:35;;;;;;;0.10;0.10;;;18.20;65.50;;;;;;4904377;29;20516;-86
2023/04/23 09:42:04;;;;;;;0.65;0.20;;;18.40;84.40;;;;;;4904428;29;20059;-86
2023/04/23 09:44:32;;;;;;;1.08;0.30;;;18.50;91.30;;;;;;4904425;29;20051;-86
2023/04/23 09:47:14;;;;;;;0.10;0.00;;;18.60;90.80;;;;;;4920522;29;20130;-86
2023/04/23 09:49:47;;;;;;;0.40;0.35;;;18.70;99.30;;;;;;4904277;29;20512;-86
2023/04/23 09:52:13;;;;;;;0.47;0.47;;;18.70;93.40;;;;;;4904565;29;20492;-86
2023/04/23 09:54:39;;;;;;;0.55;0.55;;;18.70;92.20;;;;;;4888795;29;20134;-86
2023/04/23 09:57:07;;;;;;;0.00;0.00;;;18.70;92.10;;;;;;4904847;29;20507;-86
2023/04/23 09:59:37;;;;;;;2.17;0.90;;;18.80;91.30;;;;;;4919871;29;20051;-86
2023/04/23 10:02:05;;;;;;;1.75;0.20;;;18.90;91.00;;;;;;4920645;29;20090;-86
2023/04/23 10:04:32;;;;;;;0.30;0.30;;;18.90;90.90;;;;;;4919624;29;20571;-86
2023/04/23 10:07:03;;;;;;;0.03;0.03;;;19.20;90.00;;;;;;4904288;29;20066;-86
2023/04/23 10:09:29;;;;;;;0.00;0.00;;;19.00;84.60;;;;;;4905151;29;20190;-86
2023/04/23 10:12:03;;;;;;;0.00;0.00;;;19.30;90.40;;;;;;4903855;29;20150;-86
2023/04/23 10:14:29;;;;;;;0.00;0.00;;;19.50;95.80;;;;;;4920173;29;20047;-87
2023/04/23 10:17:00;;;;;;;0.63;0.40;;;19.70;96.60;;;;;;4919713;29;20055;-86
2023/04/23 10:19:27;;;;;;;2.10;0.43;;;19.40;97.50;;;;;;4919921;29;20054;-86
2023/04/23 10:22:06;;;;;;;0.10;0.10;;;19.30;99.90;;;;;;4935720;29;20191;-86
2023/04/23 10:24:40;;;;;;;0.00;0.00;;;19.50;99.90;;;;;;4919546;29;20540;-86
2023/04/23 10:27:11;;;;;;;0.20;0.20;;;19.60;99.90;;;;;;4886078;29;20480;-86
2023/04/23 10:29:38;;;;;;;0.00;0.00;;;19.80;99.90;;;;;;4916927;29;20056;-86
2023/04/23 10:32:05;;;;;;;0.00;0.00;;;19.80;99.90;;;;;;4900898;29;20100;-86
2023/04/23 10:34:32;;;;;;;0.03;0.03;;;19.60;99.90;;;;;;4900345;29;20115;-87
2023/04/23 10:37:01;;;;;;;0.55;0.25;;;19.90;99.90;;;;;;4900179;29;20472;-87
2023/04/23 10:39:31;;;;;;;0.00;0.00;;;19.80;98.90;;;;;;4900797;29;20052;-86
2023/04/23 10:41:58;;;;;;;0.35;0.20;;;20.10;99.70;;;;;;4916011;29;20044;-87
2023/04/23 10:44:31;;;;;;;0.00;0.00;;;20.20;98.80;;;;;;4900795;29;20044;-86
2023/04/23 10:46:59;;;;;;;0.00;0.00;;;20.20;98.50;;;;;;4900591;29;20104;-87
2023/04/23 10:49:28;;;;;;;0.00;0.00;;;20.30;98.20;;;;;;4900564;29;20501;-87
2023/04/23 10:52:08;;;;;;;0.00;0.00;;;20.30;96.80;;;;;;4900895;29;20139;-87
2023/04/23 10:54:37;;;;;;;1.40;0.50;;;20.20;98.10;;;;;;4900488;29;20228;-87
2023/04/23 10:57:05;;;;;;;0.73;0.10;;;20.00;96.40;;;;;;4919355;29;20142;-86
2023/04/23 10:59:32;;;;;;;0.00;0.00;;;20.00;96.90;;;;;;4903952;29;20035;-87
2023/04/23 11:02:05;;;;;;;0.13;0.00;;;20.00;97.10;;;;;;4903754;29;20103;-87
2023/04/23 11:04:33;;;;;;;0.00;0.00;;;19.90;96.40;;;;;;4903446;29;20095;-87
2023/04/23 11:07:07;;;;;;;0.00;0.00;;;20.10;96.70;;;;;;4903311;29;20374;-87
2023/04/23 11:09:46;;;;;;;0.00;0.00;;;20.20;97.60;;;;;;4919122;29;20373;-87
2023/04/23 11:12:29;;;;;;;0.00;0.00;;;20.10;96.80;;;;;;4902868;29;20098;-87
2023/04/23 11:14:56;;;;;;;0.00;0.00;;;20.30;96.70;;;;;;4903692;29;20050;-87
2023/04/23 11:17:43;;;;;;;0.08;0.00;;;20.40;94.10;;;;;;4918817;29;20047;-87
2023/04/23 11:20:15;;;;;;;0.00;0.00;;;20.60;93.20;;;;;;4902880;29;20099;-87
2023/04/23 11:22:45;;;;;;;5.28;0.82;;;20.40;91.30;;;;;;4903577;29;20050;-88
2023/04/23 11:25:25;;;;;;;0.00;0.00;;;20.60;92.40;;;;;;4902818;29;20143;-88
2023/04/23 11:27:55;;;;;;;0.00;0.00;;;20.50;93.30;;;;;;4903412;29;20051;-88
2023/04/23 11:30:29;;;;;;;0.00;0.00;;;20.30;92.10;;;;;;4918773;29;20054;-87
2023/04/23 11:32:58;;;;;;;0.10;0.10;;;20.30;92.70;;;;;;4919302;29;20567;-87
2023/04/23 11:35:29;;;;;;;0.00;0.00;;;20.10;91.80;;;;;;4903288;29;20055;-87
2023/04/23 11:37:57;;;;;;;0.00;0.00;;;20.10;92.30;;;;;;4903487;29;20060;-88
2023/04/23 11:40:23;;;;;;;0.00;0.00;;;20.20;93.50;;;;;;4903229;29;20127;-88
2023/04/23 11:42:56;;;;;;;0.00;0.00;;;20.10;90.40;;;;;;4902888;29;20134;-88
2023/04/23 11:45:34;;;;;;;0.03;0.00;;;19.90;91.30;;;;;;4904001;29;20047;-88
2023/04/23 11:48:00;;;;;;;0.10;0.10;;;19.70;91.60;;;;;;4904346;29;20139;-88
2023/04/23 11:50:40;;;;;;;0.00;0.00;;;19.80;91.80;;;;;;4939412;29;20051;-88
2023/04/23 11:53:11;;;;;;;0.00;0.00;;;20.10;91.30;;;;;;4922211;29;20043;-87
2023/04/23 11:55:42;;;;;;;0.00;0.00;;;20.30;93.20;;;;;;4906841;29;20484;-88
2023/04/23 11:58:17;;;;;;;0.03;0.00;;;20.50;91.20;;;;;;4922090;29;20408;-87
2023/04/23 12:00:43;;;;;;;0.98;0.22;;;20.50;89.10;;;;;;4922657;29;20094;-88
2023/04/23 12:03:09;;;;;;;0.20;0.20;;;20.60;86.80;;;;;;4905827;29;20087;-87
2023/04/23 12:05:46;;;;;;;0.00;0.00;;;20.70;84.00;;;;;;4921364;29;20062;-87
2023/04/23 12:08:16;;;;;;;0.00;0.00;;;20.80;84.70;;;;;;4906556;29;20056;-88
2023/04/23 12:10:51;;;;;;;0.00;0.00;;;20.80;83.60;;;;;;4921596;29;20075;-87
2023/04/23 12:13:29;;;;;;;0.00;0.00;;;20.90;80.90;;;;;;4906492;29;20047;-88
2023/04/23 12:15:57;;;;;;;0.00;0.00;;;20.80;83.40;;;;;;4906219;29;20147;-87
2023/04/23 12:18:38;;;;;;;0.20;0.15;;;20.80;82.80;;;;;;4921597;29;20126;-88
2023/04/23 12:21:09;;;;;;;0.00;0.00;;;20.90;85.40;;;;;;4921548;29;20067;-88
2023/04/23 12:23:37;;;;;;;0.00;0.00;;;20.80;84.50;;;;;;4906181;29;20048;-87
2023/04/23 12:26:03;;;;;;;0.00;0.00;;;20.90;84.50;;;;;;4906158;29;20048;-88
2023/04/23 12:28:31;;;;;;;0.00;0.00;;;20.90;86.70;;;;;;4921600;29;20046;-88
2023/04/23 12:31:03;;;;;;;0.00;0.00;;;20.90;87.30;;;;;;4906688;29;20047;-88
2023/04/23 12:33:34;;;;;;;0.10;0.10;;;20.90;84.40;;;;;;4891025;29;20052;-87
2023/04/23 12:36:04;;;;;;;0.00;0.00;;;20.90;83.00;;;;;;4906633;29;20051;-88
2023/04/23 12:38:33;;;;;;;0.08;0.00;;;20.90;84.90;;;;;;4923169;29;20164;-86
2023/04/23 12:41:03;;;;;;;0.15;0.15;;;20.80;84.50;;;;;;4923209;29;20411;-88
2023/04/23 12:43:32;;;;;;;0.00;0.00;;;20.60;81.00;;;;;;4893344;29;20088;-88
2023/04/23 12:46:05;;;;;;;0.00;0.00;;;20.50;81.10;;;;;;4924119;29;20050;-88
2023/04/23 12:48:31;;;;;;;0.00;0.00;;;20.50;82.80;;;;;;4907677;29;20054;-87
2023/04/23 12:50:57;;;;;;;0.00;0.00;;;20.30;84.00;;;;;;4907803;29;20067;-87
2023/04/23 12:53:22;;;;;;;0.00;0.00;;;20.30;83.00;;;;;;4876255;29;20047;-88
2023/04/23 12:55:56;;;;;;;0.00;0.00;;;20.10;83.50;;;;;;4907353;29;20074;-87
2023/04/23 12:58:24;;;;;;;0.00;0.00;;;20.10;82.20;;;;;;4877254;29;20385;-87
2023/04/23 13:00:49;;;;;;;0.00;0.00;;;20.20;85.70;;;;;;4907351;29;20079;-88